Time;durP1;ratioP1;P1;durP2;ratioP2;P2;SDS_P1;SDS_P2;PMS_P1;PMS_P2;Temp;Humidity;BMP_temperature;BMP_pressure;BME280_temperature;BME280_humidity;BME280_pressure;Samples;Min_cycle;Max_cycle;Signal;HPM_P1;HPM_P2
2022/06/24 00:01:04;;;;;;;;;4.00;3.75;;;;;;;;5040840;28;51100;-59
2022/06/24 00:03:48;;;;;;;;;6.00;4.75;;;;;;;;5038933;28;51115;-58
2022/06/24 00:06:46;;;;;;;;;4.00;4.00;;;;;;;;5039133;28;51180;-58
2022/06/24 00:09:30;;;;;;;;;6.00;4.25;;;;;;;;5037453;28;51286;-59
2022/06/24 00:12:17;;;;;;;;;4.50;4.00;;;;;;;;5040630;28;51044;-57
2022/06/24 00:15:01;;;;;;;;;8.75;5.25;;;;;;;;5039861;28;51125;-57
2022/06/24 00:17:45;;;;;;;;;4.50;3.50;;;;;;;;5041293;28;51178;-57
2022/06/24 00:20:29;;;;;;;;;6.25;4.50;;;;;;;;5022197;28;51251;-57
2022/06/24 00:23:21;;;;;;;;;9.00;3.50;;;;;;;;5008503;28;51198;-57
2022/06/24 00:26:05;;;;;;;;;5.75;4.25;;;;;;;;5022876;28;51217;-57
2022/06/24 00:28:59;;;;;;;;;5.75;5.00;;;;;;;;5022966;28;51140;-57
2022/06/24 00:32:00;;;;;;;;;6.25;5.75;;;;;;;;5022231;28;51184;-58
2022/06/24 00:34:45;;;;;;;;;6.75;6.00;;;;;;;;5027734;28;51144;-58
2022/06/24 00:37:33;;;;;;;;;7.00;5.75;;;;;;;;5020545;28;51128;-58
2022/06/24 00:40:18;;;;;;;;;3.75;3.25;;;;;;;;5020307;28;51075;-58
2022/06/24 00:43:04;;;;;;;;;8.00;5.50;;;;;;;;5025798;28;51065;-58
2022/06/24 00:46:05;;;;;;;;;3.00;3.00;;;;;;;;5018166;28;51368;-57
2022/06/24 00:49:02;;;;;;;;;3.50;3.00;;;;;;;;5020790;28;51078;-58
2022/06/24 00:51:47;;;;;;;;;5.00;5.00;;;;;;;;5040970;28;51169;-58
2022/06/24 00:54:32;;;;;;;;;7.00;5.50;;;;;;;;5014671;28;51141;-57
2022/06/24 00:57:18;;;;;;;;;5.00;4.00;;;;;;;;5018566;28;51407;-58
2022/06/24 01:00:06;;;;;;;;;5.75;4.00;;;;;;;;5022847;28;51247;-58
2022/06/24 01:02:55;;;;;;;;;5.50;4.00;;;;;;;;5039469;28;51381;-57
2022/06/24 01:05:50;;;;;;;;;5.00;3.75;;;;;;;;5040394;28;51037;-57
2022/06/24 01:08:36;;;;;;;;;7.75;4.25;;;;;;;;5040316;28;51064;-58
2022/06/24 01:11:34;;;;;;;;;5.25;4.25;;;;;;;;5024700;28;51415;-57
2022/06/24 01:14:20;;;;;;;;;3.50;3.50;;;;;;;;5011522;28;51225;-58
2022/06/24 01:17:04;;;;;;;;;5.00;4.00;;;;;;;;5014621;28;51153;-59
2022/06/24 01:19:52;;;;;;;;;5.00;4.00;;;;;;;;5031576;28;51253;-58
2022/06/24 01:22:38;;;;;;;;;4.00;4.00;;;;;;;;5039908;28;51075;-57
2022/06/24 01:25:22;;;;;;;;;7.50;4.00;;;;;;;;5040154;28;51167;-58
2022/06/24 01:28:10;;;;;;;;;6.25;5.00;;;;;;;;5024674;28;51326;-58
2022/06/24 01:30:57;;;;;;;;;6.25;5.25;;;;;;;;5039554;28;51211;-57
2022/06/24 01:33:53;;;;;;;;;5.00;3.25;;;;;;;;5040324;28;51098;-58
2022/06/24 01:36:38;;;;;;;;;4.50;4.00;;;;;;;;5039550;28;50989;-57
2022/06/24 01:39:31;;;;;;;;;4.00;4.00;;;;;;;;5041595;28;51409;-57
2022/06/24 01:42:16;;;;;;;;;8.25;4.75;;;;;;;;5038596;28;51232;-57
2022/06/24 01:45:04;;;;;;;;;4.00;3.50;;;;;;;;5040129;28;51055;-58
2022/06/24 01:47:56;;;;;;;;;6.50;4.75;;;;;;;;5038876;28;51056;-58
2022/06/24 01:50:42;;;;;;;;;4.50;3.75;;;;;;;;5039116;28;51022;-57
2022/06/24 01:53:27;;;;;;;;;6.75;4.00;;;;;;;;5039240;28;51114;-58
2022/06/24 01:56:11;;;;;;;;;5.50;4.50;;;;;;;;5038464;28;51207;-59
2022/06/24 01:58:56;;;;;;;;;9.00;5.25;;;;;;;;5039365;28;51030;-58
2022/06/24 02:01:42;;;;;;;;;5.25;3.50;;;;;;;;5038742;28;51531;-59
2022/06/24 02:04:29;;;;;;;;;5.75;3.25;;;;;;;;5039105;28;51203;-58
2022/06/24 02:07:14;;;;;;;;;5.00;4.50;;;;;;;;5038737;28;51091;-58
2022/06/24 02:16:08;;;;;;;;;10.00;5.00;;;;;;;;5037632;28;51222;-57
2022/06/24 02:18:57;;;;;;;;;9.25;5.00;;;;;;;;5038000;28;51394;-58
2022/06/24 02:21:42;;;;;;;;;6.50;5.00;;;;;;;;5036969;28;51280;-57
2022/06/24 02:24:27;;;;;;;;;5.50;3.75;;;;;;;;5033872;28;51090;-58
2022/06/24 02:27:11;;;;;;;;;4.75;4.75;;;;;;;;5031599;28;51271;-59
2022/06/24 02:29:55;;;;;;;;;4.00;4.00;;;;;;;;5033427;28;51588;-58
2022/06/24 02:32:44;;;;;;;;;5.25;3.00;;;;;;;;5026446;28;51167;-57
2022/06/24 02:35:49;;;;;;;;;8.00;6.00;;;;;;;;5036441;28;51253;-56
2022/06/24 02:38:55;;;;;;;;;4.50;4.25;;;;;;;;5036213;28;51570;-58
2022/06/24 02:41:44;;;;;;;;;7.75;6.00;;;;;;;;5036422;28;51127;-57
2022/06/24 02:44:29;;;;;;;;;5.00;4.00;;;;;;;;5022911;28;51196;-58
2022/06/24 02:47:16;;;;;;;;;5.75;4.00;;;;;;;;5036151;28;51205;-57
2022/06/24 02:50:01;;;;;;;;;5.25;4.00;;;;;;;;5035334;28;51182;-57
2022/06/24 02:52:49;;;;;;;;;5.50;2.25;;;;;;;;5034466;28;51435;-57
2022/06/24 02:55:34;;;;;;;;;5.25;5.25;;;;;;;;5035106;28;51319;-57
2022/06/24 02:58:27;;;;;;;;;6.00;4.50;;;;;;;;5035235;28;51087;-57
2022/06/24 03:01:11;;;;;;;;;8.25;5.00;;;;;;;;5031203;28;51119;-57
2022/06/24 03:03:58;;;;;;;;;5.25;5.25;;;;;;;;5036455;28;51152;-58
2022/06/24 03:06:42;;;;;;;;;6.75;5.00;;;;;;;;5038285;28;51076;-57
2022/06/24 03:09:28;;;;;;;;;5.50;4.25;;;;;;;;5038573;28;51287;-58
2022/06/24 03:12:34;;;;;;;;;4.75;3.25;;;;;;;;5038012;28;51057;-57
2022/06/24 03:15:23;;;;;;;;;6.00;4.25;;;;;;;;5038324;28;50989;-57
2022/06/24 03:18:11;;;;;;;;;5.50;5.25;;;;;;;;5035992;28;51365;-57
2022/06/24 03:21:08;;;;;;;;;6.25;4.00;;;;;;;;5038278;28;51012;-57
2022/06/24 03:23:54;;;;;;;;;8.50;5.25;;;;;;;;5038156;28;51040;-58
2022/06/24 03:26:49;;;;;;;;;8.50;5.75;;;;;;;;5038512;28;51170;-58
2022/06/24 03:29:44;;;;;;;;;7.75;4.25;;;;;;;;5038058;28;51502;-58
2022/06/24 03:32:29;;;;;;;;;6.25;5.25;;;;;;;;5037971;28;51047;-58
2022/06/24 03:35:19;;;;;;;;;8.75;7.00;;;;;;;;5038244;28;51158;-57
2022/06/24 03:38:09;;;;;;;;;6.25;6.00;;;;;;;;5037859;28;51093;-57
2022/06/24 03:41:04;;;;;;;;;8.25;6.25;;;;;;;;5038434;28;51022;-58
2022/06/24 03:43:53;;;;;;;;;4.75;4.50;;;;;;;;5040782;28;51466;-58
2022/06/24 03:46:42;;;;;;;;;5.50;4.00;;;;;;;;5040331;28;51430;-57
2022/06/24 03:49:28;;;;;;;;;6.50;4.75;;;;;;;;5040772;28;51181;-57
2022/06/24 03:52:13;;;;;;;;;6.00;5.00;;;;;;;;5041458;28;51265;-57
2022/06/24 03:54:58;;;;;;;;;7.00;4.25;;;;;;;;5041303;28;51198;-57
2022/06/24 03:58:05;;;;;;;;;8.50;5.75;;;;;;;;5041073;28;51157;-58
2022/06/24 04:00:59;;;;;;;;;9.25;5.25;;;;;;;;5040313;28;51044;-57
2022/06/24 04:03:44;;;;;;;;;8.50;5.00;;;;;;;;5041313;28;51012;-58
2022/06/24 04:06:37;;;;;;;;;9.25;6.25;;;;;;;;5041411;28;51180;-58
2022/06/24 04:09:35;;;;;;;;;11.00;6.00;;;;;;;;5041172;28;51068;-57
2022/06/24 04:12:31;;;;;;;;;10.50;6.50;;;;;;;;5040874;28;51427;-57
2022/06/24 04:15:18;;;;;;;;;7.00;6.00;;;;;;;;5038006;28;51075;-58
2022/06/24 04:18:05;;;;;;;;;8.50;7.00;;;;;;;;5041112;28;51165;-58
2022/06/24 04:20:59;;;;;;;;;10.50;4.75;;;;;;;;5020877;28;51538;-58
2022/06/24 04:23:44;;;;;;;;;5.00;5.00;;;;;;;;5021362;28;51131;-57
2022/06/24 04:26:33;;;;;;;;;7.00;6.00;;;;;;;;5005236;28;51056;-57
2022/06/24 04:29:19;;;;;;;;;13.50;7.00;;;;;;;;5019370;28;51171;-57
2022/06/24 04:32:05;;;;;;;;;11.75;7.00;;;;;;;;5005591;28;51252;-58
2022/06/24 04:34:53;;;;;;;;;12.50;8.00;;;;;;;;5000411;28;51561;-57
2022/06/24 04:37:38;;;;;;;;;9.50;6.75;;;;;;;;4993519;28;51137;-57
2022/06/24 04:40:26;;;;;;;;;9.25;7.00;;;;;;;;4991195;28;51175;-57
2022/06/24 04:43:12;;;;;;;;;12.00;7.00;;;;;;;;4998585;28;51045;-57
2022/06/24 04:45:57;;;;;;;;;8.00;7.50;;;;;;;;5002834;28;51526;-58
2022/06/24 04:48:42;;;;;;;;;11.25;8.00;;;;;;;;5000704;28;51069;-58
2022/06/24 04:51:29;;;;;;;;;13.25;8.25;;;;;;;;5000893;28;51136;-58
2022/06/24 04:54:15;;;;;;;;;7.25;7.25;;;;;;;;4999155;28;51190;-58
2022/06/24 04:57:02;;;;;;;;;12.00;9.25;;;;;;;;5008968;28;51079;-58
2022/06/24 04:59:47;;;;;;;;;9.00;7.00;;;;;;;;5000553;28;51578;-59
2022/06/24 05:02:41;;;;;;;;;9.25;7.50;;;;;;;;5007135;28;51489;-57
2022/06/24 05:05:36;;;;;;;;;10.50;8.50;;;;;;;;5014803;28;53050;-57
2022/06/24 05:08:31;;;;;;;;;13.50;10.75;;;;;;;;5003436;28;51011;-58
2022/06/24 05:11:17;;;;;;;;;14.75;10.25;;;;;;;;5000196;28;51126;-58
2022/06/24 05:14:05;;;;;;;;;10.00;8.50;;;;;;;;5000063;28;51140;-58
2022/06/24 05:17:00;;;;;;;;;14.50;12.25;;;;;;;;5000053;28;51467;-58
2022/06/24 05:19:49;;;;;;;;;14.75;11.75;;;;;;;;5013169;28;51137;-59
2022/06/24 05:22:38;;;;;;;;;12.75;11.00;;;;;;;;5019765;28;51034;-59
2022/06/24 05:25:23;;;;;;;;;13.50;11.75;;;;;;;;5019639;28;51486;-58
2022/06/24 05:28:09;;;;;;;;;13.75;11.00;;;;;;;;5019335;28;51152;-57
2022/06/24 05:31:21;;;;;;;;;16.50;10.50;;;;;;;;5019143;28;51160;-58
2022/06/24 05:34:15;;;;;;;;;11.75;9.25;;;;;;;;5019136;28;50950;-57
2022/06/24 05:37:03;;;;;;;;;13.00;9.75;;;;;;;;5019504;28;51641;-58
2022/06/24 05:39:49;;;;;;;;;16.75;10.75;;;;;;;;5019777;28;51108;-57
2022/06/24 05:42:50;;;;;;;;;16.50;12.25;;;;;;;;5019561;28;51088;-57
2022/06/24 05:45:43;;;;;;;;;16.00;14.00;;;;;;;;5019283;28;51081;-57
2022/06/24 05:48:48;;;;;;;;;14.50;12.50;;;;;;;;5018877;28;51041;-57
2022/06/24 05:51:44;;;;;;;;;23.25;15.50;;;;;;;;5019209;28;51342;-58
2022/06/24 05:57:34;;;;;;;;;25.75;23.00;;;;;;;;5011809;28;51507;-57
2022/06/24 06:00:25;;;;;;;;;20.75;14.00;;;;;;;;5005551;28;51184;-58
2022/06/24 06:03:19;;;;;;;;;16.25;14.50;;;;;;;;5018705;28;51172;-58
2022/06/24 06:06:26;;;;;;;;;19.00;15.50;;;;;;;;5018897;28;51171;-58
2022/06/24 06:09:31;;;;;;;;;20.50;16.25;;;;;;;;5018822;28;51109;-58
2022/06/24 06:12:34;;;;;;;;;20.75;16.25;;;;;;;;5013776;28;51136;-57
2022/06/24 06:15:19;;;;;;;;;24.50;20.50;;;;;;;;5012934;28;51111;-58
2022/06/24 06:18:05;;;;;;;;;20.75;16.50;;;;;;;;5018368;28;51088;-57
2022/06/24 06:20:52;;;;;;;;;20.00;18.50;;;;;;;;5018863;28;51400;-57
2022/06/24 06:23:40;;;;;;;;;20.50;20.00;;;;;;;;5018738;28;52323;-57
2022/06/24 06:26:24;;;;;;;;;25.75;21.25;;;;;;;;5016722;28;51088;-58
2022/06/24 06:29:10;;;;;;;;;28.50;23.75;;;;;;;;5018590;28;51500;-57
2022/06/24 06:31:56;;;;;;;;;25.75;22.50;;;;;;;;5018948;28;51229;-57
2022/06/24 06:34:43;;;;;;;;;20.00;17.50;;;;;;;;5017484;28;51465;-58
2022/06/24 06:37:29;;;;;;;;;22.25;19.50;;;;;;;;5018301;28;51085;-58
2022/06/24 06:40:18;;;;;;;;;27.50;21.50;;;;;;;;5014335;28;51105;-58
2022/06/24 06:43:07;;;;;;;;;20.25;17.25;;;;;;;;5012805;28;51161;-57
2022/06/24 06:45:53;;;;;;;;;22.75;16.00;;;;;;;;5018756;28;51472;-57
2022/06/24 06:48:38;;;;;;;;;21.75;17.00;;;;;;;;5018187;28;51150;-57
2022/06/24 06:51:25;;;;;;;;;19.25;16.50;;;;;;;;5019059;28;51177;-58
2022/06/24 06:54:14;;;;;;;;;19.75;16.50;;;;;;;;5018904;28;51581;-58
2022/06/24 06:57:00;;;;;;;;;19.50;15.75;;;;;;;;5006738;28;51010;-58
2022/06/24 06:59:51;;;;;;;;;23.50;21.25;;;;;;;;5010048;28;51378;-58
2022/06/24 07:02:37;;;;;;;;;21.50;21.50;;;;;;;;5016872;28;51191;-58
2022/06/24 07:05:26;;;;;;;;;20.50;18.50;;;;;;;;5018379;28;51662;-58
2022/06/24 07:08:16;;;;;;;;;22.25;14.50;;;;;;;;5004158;28;51163;-58
2022/06/24 07:11:05;;;;;;;;;17.00;15.75;;;;;;;;5015803;28;51174;-58
2022/06/24 07:13:50;;;;;;;;;19.75;16.75;;;;;;;;5001300;28;51251;-58
2022/06/24 07:16:37;;;;;;;;;16.00;15.50;;;;;;;;5018336;28;50974;-58
2022/06/24 07:19:23;;;;;;;;;17.00;13.25;;;;;;;;5001925;28;51569;-57
2022/06/24 07:22:25;;;;;;;;;13.75;12.50;;;;;;;;5017480;28;51118;-58
2022/06/24 07:25:31;;;;;;;;;20.75;15.75;;;;;;;;5020267;28;51446;-58
2022/06/24 07:28:16;;;;;;;;;11.50;9.50;;;;;;;;5022189;28;51176;-59
2022/06/24 07:31:21;;;;;;;;;14.75;13.50;;;;;;;;5020318;28;51114;-58
2022/06/24 07:34:06;;;;;;;;;14.00;10.50;;;;;;;;5021720;28;51175;-57
2022/06/24 07:36:52;;;;;;;;;10.75;8.75;;;;;;;;5022167;28;51132;-57
2022/06/24 07:39:41;;;;;;;;;20.50;9.50;;;;;;;;5022402;28;50998;-58
2022/06/24 07:42:36;;;;;;;;;14.25;9.50;;;;;;;;5020511;28;51113;-57
2022/06/24 07:45:26;;;;;;;;;12.25;10.25;;;;;;;;5032471;28;51288;-58
2022/06/24 07:48:11;;;;;;;;;15.75;12.50;;;;;;;;5040962;28;51150;-57
2022/06/24 07:50:57;;;;;;;;;14.50;10.25;;;;;;;;5041472;28;51366;-58
2022/06/24 07:54:16;;;;;;;;;9.75;7.75;;;;;;;;5020121;28;51181;-57
2022/06/24 07:57:09;;;;;;;;;10.75;10.00;;;;;;;;5021299;28;51177;-58
2022/06/24 08:00:03;;;;;;;;;12.50;9.50;;;;;;;;5021373;28;51050;-57
2022/06/24 08:02:51;;;;;;;;;14.50;11.50;;;;;;;;5021026;28;51422;-57
2022/06/24 08:05:38;;;;;;;;;13.00;10.75;;;;;;;;5021825;28;51120;-58
2022/06/24 08:08:24;;;;;;;;;8.75;6.00;;;;;;;;5021734;28;51145;-58
2022/06/24 08:11:10;;;;;;;;;12.00;8.25;;;;;;;;5015292;28;51204;-58
2022/06/24 08:13:54;;;;;;;;;14.00;10.25;;;;;;;;5021442;28;51156;-57
2022/06/24 08:16:42;;;;;;;;;8.00;6.00;;;;;;;;5021112;28;51066;-57
2022/06/24 08:19:28;;;;;;;;;8.50;7.00;;;;;;;;5004682;28;51106;-58
2022/06/24 08:22:17;;;;;;;;;13.25;10.75;;;;;;;;5012837;28;51349;-57
2022/06/24 08:25:23;;;;;;;;;7.00;7.00;;;;;;;;5011521;28;51151;-58
2022/06/24 08:28:09;;;;;;;;;12.00;8.00;;;;;;;;5002736;28;51095;-58
2022/06/24 08:31:27;;;;;;;;;7.00;7.00;;;;;;;;5015770;28;51190;-57
2022/06/24 08:37:25;;;;;;;;;11.75;6.50;;;;;;;;5020356;28;51369;-56
2022/06/24 08:40:15;;;;;;;;;8.50;6.00;;;;;;;;5020549;28;51059;-57
2022/06/24 08:43:03;;;;;;;;;13.50;6.50;;;;;;;;5020160;28;51098;-57
2022/06/24 08:45:52;;;;;;;;;12.25;11.00;;;;;;;;5020224;28;51032;-57
2022/06/24 08:48:47;;;;;;;;;13.50;9.25;;;;;;;;5019800;28;51132;-57
2022/06/24 08:51:42;;;;;;;;;8.25;6.50;;;;;;;;5005182;28;51107;-58
2022/06/24 08:54:38;;;;;;;;;10.25;8.50;;;;;;;;5020210;28;51116;-57
2022/06/24 08:57:23;;;;;;;;;11.50;10.00;;;;;;;;5019481;28;51146;-58
2022/06/24 09:00:08;;;;;;;;;14.00;11.00;;;;;;;;5019908;28;51214;-57
2022/06/24 09:02:54;;;;;;;;;12.25;9.00;;;;;;;;5019816;28;51495;-58
2022/06/24 09:05:47;;;;;;;;;11.00;7.00;;;;;;;;5019908;28;51229;-58
2022/06/24 09:08:34;;;;;;;;;7.25;6.25;;;;;;;;5019502;28;51444;-58
2022/06/24 09:11:20;;;;;;;;;14.25;8.50;;;;;;;;5005005;28;51231;-56
2022/06/24 09:14:08;;;;;;;;;10.25;9.00;;;;;;;;4978002;28;51530;-57
2022/06/24 09:17:01;;;;;;;;;13.00;11.00;;;;;;;;4977592;28;51146;-53
2022/06/24 09:19:46;;;;;;;;;12.00;10.25;;;;;;;;4977270;28;51165;-55
2022/06/24 09:22:36;;;;;;;;;8.75;7.00;;;;;;;;4977462;28;51227;-55
2022/06/24 09:25:49;;;;;;;;;9.50;8.00;;;;;;;;4978906;28;51206;-53
2022/06/24 09:28:54;;;;;;;;;8.00;8.00;;;;;;;;4976876;28;51241;-54
2022/06/24 09:31:41;;;;;;;;;10.25;6.00;;;;;;;;4977491;28;51130;-53
2022/06/24 09:34:31;;;;;;;;;8.50;6.75;;;;;;;;4978221;28;51167;-52
2022/06/24 09:37:33;;;;;;;;;8.25;7.00;;;;;;;;4975715;28;51230;-50
2022/06/24 09:40:28;;;;;;;;;7.50;6.50;;;;;;;;4975163;28;51527;-54
2022/06/24 09:43:16;;;;;;;;;6.00;6.00;;;;;;;;4977105;28;51213;-55
2022/06/24 09:46:21;;;;;;;;;11.25;7.00;;;;;;;;4977586;28;51091;-57
2022/06/24 09:49:09;;;;;;;;;9.50;6.00;;;;;;;;4975503;28;51079;-51
2022/06/24 09:51:59;;;;;;;;;9.75;7.00;;;;;;;;5007959;28;51146;-55
2022/06/24 09:55:11;;;;;;;;;10.00;7.75;;;;;;;;5018476;28;51179;-54
2022/06/24 09:57:56;;;;;;;;;8.50;6.25;;;;;;;;5018226;28;51152;-53
2022/06/24 10:00:48;;;;;;;;;6.50;6.50;;;;;;;;5018432;28;51383;-55
2022/06/24 10:03:47;;;;;;;;;7.00;7.00;;;;;;;;5019123;28;50983;-58
2022/06/24 10:06:39;;;;;;;;;8.25;6.00;;;;;;;;5016944;28;51191;-53
2022/06/24 10:09:26;;;;;;;;;8.00;6.25;;;;;;;;5015905;28;51220;-53
2022/06/24 10:12:16;;;;;;;;;9.75;8.25;;;;;;;;5019172;28;51502;-53
2022/06/24 10:15:07;;;;;;;;;7.25;6.00;;;;;;;;5019112;28;51224;-55
2022/06/24 10:17:53;;;;;;;;;8.25;6.75;;;;;;;;5019232;28;51079;-52
2022/06/24 10:20:43;;;;;;;;;10.50;7.50;;;;;;;;5018801;28;51220;-55
2022/06/24 10:23:58;;;;;;;;;8.75;6.50;;;;;;;;5018885;28;51172;-54
2022/06/24 10:26:58;;;;;;;;;5.25;4.75;;;;;;;;5005565;28;51438;-51
2022/06/24 10:29:45;;;;;;;;;11.00;8.00;;;;;;;;5019241;28;51219;-56
2022/06/24 10:32:44;;;;;;;;;10.25;8.50;;;;;;;;5019119;28;52022;-57
2022/06/24 10:35:51;;;;;;;;;6.00;5.50;;;;;;;;5019199;28;51135;-55
2022/06/24 10:38:44;;;;;;;;;4.50;4.50;;;;;;;;5012431;28;51026;-54
2022/06/24 10:41:49;;;;;;;;;9.25;7.50;;;;;;;;5003299;28;51083;-54
2022/06/24 10:44:37;;;;;;;;;8.25;6.50;;;;;;;;5019240;28;51053;-54
2022/06/24 10:47:41;;;;;;;;;10.75;8.75;;;;;;;;5010896;28;51429;-55
2022/06/24 10:50:30;;;;;;;;;11.25;6.50;;;;;;;;5018135;28;51144;-51
2022/06/24 10:53:21;;;;;;;;;10.00;8.50;;;;;;;;5014512;28;51842;-55
2022/06/24 10:56:06;;;;;;;;;15.00;9.00;;;;;;;;5022406;28;51184;-55
2022/06/24 10:59:04;;;;;;;;;9.00;8.75;;;;;;;;5022220;28;51133;-53
2022/06/24 11:01:50;;;;;;;;;9.50;7.50;;;;;;;;5022670;28;51158;-54
2022/06/24 11:04:34;;;;;;;;;9.75;6.75;;;;;;;;5022537;28;51045;-55
2022/06/24 11:07:22;;;;;;;;;8.75;7.00;;;;;;;;5020853;28;51176;-56
2022/06/24 11:10:29;;;;;;;;;10.75;10.75;;;;;;;;5022659;28;51150;-52
2022/06/24 11:13:17;;;;;;;;;8.75;8.00;;;;;;;;5021983;28;51205;-55
2022/06/24 11:16:07;;;;;;;;;11.75;10.50;;;;;;;;5021976;28;51003;-54
2022/06/24 11:18:55;;;;;;;;;9.75;9.00;;;;;;;;5021370;28;51097;-55
2022/06/24 11:21:51;;;;;;;;;10.50;7.25;;;;;;;;5020736;28;51117;-54
2022/06/24 11:25:11;;;;;;;;;12.25;8.25;;;;;;;;5019065;28;51513;-55
2022/06/24 11:27:57;;;;;;;;;11.00;8.50;;;;;;;;5018701;28;51035;-51
2022/06/24 11:30:42;;;;;;;;;10.25;10.25;;;;;;;;5021998;28;51101;-52
2022/06/24 11:33:32;;;;;;;;;11.75;9.00;;;;;;;;5019662;28;51933;-57
2022/06/24 11:36:21;;;;;;;;;12.00;9.00;;;;;;;;5021644;28;51088;-55
2022/06/24 11:39:27;;;;;;;;;10.75;9.25;;;;;;;;5021059;28;51495;-51
2022/06/24 11:42:15;;;;;;;;;13.25;10.25;;;;;;;;5014202;28;51147;-53
2022/06/24 11:45:08;;;;;;;;;10.75;9.00;;;;;;;;5020645;28;51058;-54
2022/06/24 11:47:55;;;;;;;;;15.75;11.25;;;;;;;;5006469;28;51141;-55
2022/06/24 11:50:42;;;;;;;;;13.25;10.75;;;;;;;;5020842;28;51556;-51
2022/06/24 11:53:28;;;;;;;;;12.00;9.50;;;;;;;;5021636;28;51302;-54
2022/06/24 11:56:33;;;;;;;;;13.00;11.75;;;;;;;;5021682;28;51636;-57
2022/06/24 11:59:27;;;;;;;;;10.25;10.00;;;;;;;;5006537;28;51274;-58
2022/06/24 12:02:20;;;;;;;;;12.00;9.50;;;;;;;;5021802;28;51209;-54
2022/06/24 12:05:07;;;;;;;;;6.25;6.00;;;;;;;;5020263;28;51460;-54
2022/06/24 12:08:11;;;;;;;;;7.25;6.50;;;;;;;;5020114;28;51161;-55
2022/06/24 12:10:56;;;;;;;;;10.00;8.75;;;;;;;;5020175;28;51192;-54
2022/06/24 12:13:54;;;;;;;;;10.50;7.25;;;;;;;;5020466;28;51316;-54
2022/06/24 12:17:25;;;;;;;;;8.00;8.00;;;;;;;;5018807;28;51460;-55
2022/06/24 12:20:24;;;;;;;;;9.25;8.25;;;;;;;;5015452;28;52054;-56
2022/06/24 12:23:14;;;;;;;;;7.75;7.75;;;;;;;;5011556;28;51257;-56
2022/06/24 12:25:58;;;;;;;;;11.75;7.75;;;;;;;;5021237;28;51244;-56
2022/06/24 12:29:06;;;;;;;;;11.00;10.00;;;;;;;;5023080;28;50506;-52
2022/06/24 12:31:52;;;;;;;;;9.00;7.25;;;;;;;;5020154;28;51172;-56
2022/06/24 12:34:38;;;;;;;;;9.50;7.50;;;;;;;;5030860;28;51097;-53
2022/06/24 12:37:29;;;;;;;;;13.25;8.50;;;;;;;;5038286;28;51074;-54
2022/06/24 12:40:24;;;;;;;;;9.50;6.50;;;;;;;;5027703;28;51263;-55
2022/06/24 12:43:19;;;;;;;;;9.50;8.50;;;;;;;;5017831;28;51661;-56
2022/06/24 12:46:05;;;;;;;;;0.50;0.25;;;;;;;;5018669;28;51218;-58
2022/06/24 12:51:59;;;;;;;;;7.25;5.25;;;;;;;;5016644;28;51207;-54
2022/06/24 12:55:04;;;;;;;;;5.00;1.75;;;;;;;;5017039;28;51117;-56
2022/06/24 12:57:59;;;;;;;;;8.75;4.00;;;;;;;;5017864;28;51488;-58
2022/06/24 13:00:43;;;;;;;;;2.25;2.25;;;;;;;;5019043;28;51167;-56
2022/06/24 13:03:31;;;;;;;;;5.75;4.00;;;;;;;;5019534;28;51171;-57
2022/06/24 13:06:16;;;;;;;;;3.00;2.00;;;;;;;;5019045;28;51020;-54
2022/06/24 13:09:02;;;;;;;;;4.00;4.00;;;;;;;;5019858;28;51945;-57
2022/06/24 13:11:48;;;;;;;;;3.50;3.50;;;;;;;;5019759;28;51238;-56
2022/06/24 13:14:33;;;;;;;;;3.00;2.00;;;;;;;;5005069;28;51365;-55
2022/06/24 13:17:30;;;;;;;;;6.00;3.00;;;;;;;;5019379;28;51134;-57
2022/06/24 13:20:15;;;;;;;;;6.00;4.00;;;;;;;;5019755;28;51222;-57
2022/06/24 13:23:10;;;;;;;;;6.00;4.50;;;;;;;;5019153;28;51490;-57
2022/06/24 13:26:13;;;;;;;;;6.50;4.75;;;;;;;;5019709;28;51146;-57
2022/06/24 13:29:00;;;;;;;;;6.00;4.00;;;;;;;;5015064;28;51147;-54
2022/06/24 13:31:55;;;;;;;;;7.00;5.75;;;;;;;;5016618;28;51078;-58
2022/06/24 13:34:39;;;;;;;;;6.50;5.50;;;;;;;;5003987;28;51127;-57
2022/06/24 13:37:23;;;;;;;;;3.25;3.25;;;;;;;;5018423;28;51067;-57
2022/06/24 13:40:08;;;;;;;;;4.25;3.50;;;;;;;;5019617;28;51157;-58
2022/06/24 13:43:00;;;;;;;;;6.00;5.50;;;;;;;;5016079;28;51495;-57
2022/06/24 13:45:54;;;;;;;;;4.50;4.50;;;;;;;;5019250;28;51188;-57
2022/06/24 13:48:49;;;;;;;;;6.00;5.50;;;;;;;;5018209;28;51549;-57
2022/06/24 13:51:35;;;;;;;;;5.00;5.00;;;;;;;;5003179;28;51507;-57
2022/06/24 13:54:26;;;;;;;;;7.50;6.75;;;;;;;;5011270;28;52612;-57
2022/06/24 13:57:10;;;;;;;;;9.00;7.25;;;;;;;;5018593;28;51070;-58
2022/06/24 13:59:55;;;;;;;;;10.75;9.00;;;;;;;;5018241;28;51165;-57
2022/06/24 14:02:40;;;;;;;;;10.00;9.00;;;;;;;;5018124;28;51209;-57
2022/06/24 14:05:29;;;;;;;;;13.00;9.00;;;;;;;;5018495;28;51277;-57
2022/06/24 14:08:33;;;;;;;;;11.75;10.00;;;;;;;;5018793;28;51256;-57
2022/06/24 14:11:18;;;;;;;;;16.50;12.50;;;;;;;;5018888;28;51108;-56
2022/06/24 14:14:08;;;;;;;;;16.50;14.00;;;;;;;;5017732;28;51164;-55
2022/06/24 14:16:52;;;;;;;;;20.25;15.25;;;;;;;;5017407;28;51604;-57
2022/06/24 14:19:37;;;;;;;;;15.00;14.00;;;;;;;;5018391;28;51066;-55
2022/06/24 14:22:21;;;;;;;;;15.00;13.50;;;;;;;;5018523;28;51093;-55
2022/06/24 14:25:06;;;;;;;;;14.75;12.00;;;;;;;;5017480;28;51105;-56
2022/06/24 14:27:50;;;;;;;;;16.00;13.50;;;;;;;;5017587;28;51265;-54
2022/06/24 14:30:37;;;;;;;;;15.00;14.00;;;;;;;;5018508;28;51379;-55
2022/06/24 14:33:21;;;;;;;;;14.00;13.00;;;;;;;;5018365;28;51101;-56
2022/06/24 14:36:17;;;;;;;;;27.75;24.75;;;;;;;;5018497;28;51153;-56
2022/06/24 14:42:05;;;;;;;;;16.75;13.50;;;;;;;;5018414;28;51034;-57
2022/06/24 14:44:50;;;;;;;;;13.75;12.00;;;;;;;;5017081;28;51185;-56
2022/06/24 14:47:36;;;;;;;;;12.75;12.75;;;;;;;;5018713;28;51141;-57
2022/06/24 14:50:20;;;;;;;;;13.00;12.25;;;;;;;;5017030;28;51071;-57
2022/06/24 14:53:06;;;;;;;;;14.50;12.00;;;;;;;;5018265;28;51201;-55
2022/06/24 14:55:51;;;;;;;;;17.00;16.50;;;;;;;;5018490;28;51077;-56
2022/06/24 14:58:46;;;;;;;;;26.25;18.25;;;;;;;;5017879;28;51186;-57
2022/06/24 15:01:42;;;;;;;;;19.50;16.50;;;;;;;;5018554;28;51100;-56
2022/06/24 15:04:38;;;;;;;;;11.00;8.75;;;;;;;;5018665;28;51134;-56
2022/06/24 15:07:24;;;;;;;;;12.00;11.00;;;;;;;;5018290;28;51093;-57
2022/06/24 15:10:20;;;;;;;;;14.00;8.25;;;;;;;;5018343;28;51069;-56
2022/06/24 15:13:05;;;;;;;;;11.25;9.75;;;;;;;;5003584;28;51077;-52
2022/06/24 15:15:53;;;;;;;;;14.75;11.00;;;;;;;;5018213;28;51080;-57
2022/06/24 15:18:44;;;;;;;;;10.75;8.75;;;;;;;;5018196;28;51032;-57
2022/06/24 15:21:32;;;;;;;;;9.75;8.00;;;;;;;;5017754;28;51436;-56
2022/06/24 15:24:32;;;;;;;;;13.25;9.25;;;;;;;;5018472;28;51128;-55
2022/06/24 15:27:20;;;;;;;;;7.25;7.00;;;;;;;;5018420;28;51025;-55
2022/06/24 15:30:11;;;;;;;;;9.25;5.25;;;;;;;;5018221;28;51356;-56
2022/06/24 15:32:56;;;;;;;;;8.00;6.50;;;;;;;;5002952;28;51147;-57
2022/06/24 15:35:52;;;;;;;;;10.00;7.50;;;;;;;;5018398;28;51160;-55
2022/06/24 15:38:37;;;;;;;;;7.75;7.75;;;;;;;;5018679;28;51136;-55
2022/06/24 15:41:22;;;;;;;;;7.00;7.00;;;;;;;;5021460;28;51082;-57
2022/06/24 15:44:07;;;;;;;;;12.75;8.00;;;;;;;;5006891;28;51067;-56
2022/06/24 15:46:52;;;;;;;;;7.75;5.25;;;;;;;;5006372;28;51304;-55
2022/06/24 15:49:38;;;;;;;;;7.75;6.00;;;;;;;;5021401;28;51148;-56
2022/06/24 15:52:22;;;;;;;;;8.00;6.50;;;;;;;;5021800;28;51132;-55
2022/06/24 15:55:11;;;;;;;;;9.25;8.00;;;;;;;;5021534;28;51076;-54
2022/06/24 15:57:57;;;;;;;;;8.00;6.75;;;;;;;;5021291;28;51569;-57
2022/06/24 16:00:58;;;;;;;;;17.00;8.00;;;;;;;;5018300;28;51063;-57
2022/06/24 16:03:42;;;;;;;;;12.00;7.25;;;;;;;;5021868;28;51223;-57
2022/06/24 16:06:27;;;;;;;;;9.00;7.00;;;;;;;;5021249;28;51113;-54
2022/06/24 16:09:13;;;;;;;;;8.25;7.00;;;;;;;;5021333;28;51174;-56
2022/06/24 16:15:04;;;;;;;;;12.75;9.00;;;;;;;;5021326;28;51292;-56
2022/06/24 16:17:50;;;;;;;;;10.50;5.75;;;;;;;;5021210;28;51106;-57
2022/06/24 16:20:48;;;;;;;;;4.00;4.00;;;;;;;;5020419;28;51176;-58
2022/06/24 16:23:34;;;;;;;;;7.25;6.25;;;;;;;;5005932;28;51097;-57
2022/06/24 16:29:24;;;;;;;;;14.50;14.50;;;;;;;;5020714;28;51070;-57
2022/06/24 16:32:10;;;;;;;;;11.50;8.25;;;;;;;;5020587;28;51537;-56
2022/06/24 16:34:57;;;;;;;;;5.50;5.00;;;;;;;;5020905;28;51275;-56
2022/06/24 16:37:45;;;;;;;;;10.25;5.00;;;;;;;;5020636;28;51523;-57
2022/06/24 16:40:36;;;;;;;;;11.50;5.50;;;;;;;;5016413;28;51138;-56
2022/06/24 16:43:28;;;;;;;;;12.00;9.00;;;;;;;;5020691;28;50955;-55
2022/06/24 16:46:12;;;;;;;;;4.75;4.75;;;;;;;;5020692;28;51188;-57
2022/06/24 16:48:58;;;;;;;;;6.25;5.25;;;;;;;;5013059;28;51232;-56
2022/06/24 16:51:44;;;;;;;;;4.00;4.00;;;;;;;;5019792;28;51184;-55
2022/06/24 16:54:29;;;;;;;;;7.25;4.25;;;;;;;;5015456;28;51146;-55
2022/06/24 16:57:13;;;;;;;;;7.50;6.50;;;;;;;;5020499;28;51054;-56
2022/06/24 16:59:58;;;;;;;;;8.00;6.25;;;;;;;;5020576;28;51120;-57
2022/06/24 17:02:54;;;;;;;;;9.50;6.00;;;;;;;;5014791;28;51470;-54
2022/06/24 17:05:39;;;;;;;;;8.00;6.50;;;;;;;;5017138;28;51075;-58
2022/06/24 17:08:25;;;;;;;;;7.25;5.75;;;;;;;;5020166;28;51071;-57
2022/06/24 17:11:10;;;;;;;;;8.00;6.00;;;;;;;;5019874;28;51096;-57
2022/06/24 17:13:57;;;;;;;;;6.00;4.75;;;;;;;;5005157;28;51419;-57